Time;durP1;ratioP1;P1;durP2;ratioP2;P2;SDS_P1;SDS_P2;PMS_P1;PMS_P2;Temp;Humidity;BMP_temperature;BMP_pressure;BME280_temperature;BME280_humidity;BME280_pressure;Samples;Min_cycle;Max_cycle;Signal;HPM_P1;HPM_P2
2022/06/11 00:01:38;;;;;;;3.33;3.03;;;15.40;69.50;;;;;;5016104;28;20033;-66
2022/06/11 00:04:07;;;;;;;3.25;2.70;;;15.40;69.50;;;;;;5016213;28;20040;-66
2022/06/11 00:06:38;;;;;;;3.05;2.80;;;15.30;69.00;;;;;;5013016;28;20046;-66
2022/06/11 00:09:05;;;;;;;4.53;2.60;;;15.30;69.20;;;;;;5016630;28;20030;-66
2022/06/11 00:11:32;;;;;;;3.35;2.97;;;15.30;69.10;;;;;;5012762;28;20044;-66
2022/06/11 00:13:57;;;;;;;5.95;3.00;;;15.30;69.20;;;;;;5014962;28;20180;-66
2022/06/11 00:16:24;;;;;;;3.85;2.97;;;15.20;69.30;;;;;;5014734;28;20128;-66
2022/06/11 00:18:56;;;;;;;2.60;2.40;;;15.20;69.50;;;;;;5013037;28;20103;-67
2022/06/11 00:21:24;;;;;;;4.38;2.80;;;15.10;69.40;;;;;;5015488;28;20030;-66
2022/06/11 00:23:49;;;;;;;3.85;2.65;;;15.10;69.50;;;;;;5015381;28;20046;-66
2022/06/11 00:26:15;;;;;;;3.10;2.80;;;15.00;69.60;;;;;;5014818;28;20034;-66
2022/06/11 00:28:41;;;;;;;3.65;2.63;;;15.00;69.80;;;;;;5013693;28;20033;-66
2022/06/11 00:31:08;;;;;;;3.15;2.85;;;14.90;69.90;;;;;;5014048;28;20523;-66
2022/06/11 00:33:35;;;;;;;2.63;2.42;;;14.90;70.30;;;;;;5014335;28;20042;-66
2022/06/11 00:36:01;;;;;;;2.75;2.55;;;14.80;70.20;;;;;;5015403;28;20851;-66
2022/06/11 00:38:26;;;;;;;5.10;3.10;;;14.80;70.40;;;;;;5015337;28;20072;-66
2022/06/11 00:40:53;;;;;;;2.80;2.60;;;14.70;70.40;;;;;;5019051;28;20049;-66
2022/06/11 00:43:29;;;;;;;2.80;2.60;;;14.70;70.70;;;;;;5018624;28;20068;-66
2022/06/11 00:45:56;;;;;;;5.07;2.80;;;14.60;70.80;;;;;;5014720;28;20052;-65
2022/06/11 00:48:31;;;;;;;2.88;2.45;;;14.60;70.90;;;;;;5015051;28;20129;-66
2022/06/11 00:51:12;;;;;;;3.53;2.20;;;14.60;71.10;;;;;;5013357;28;20045;-66
2022/06/11 00:53:48;;;;;;;2.85;2.65;;;14.60;71.90;;;;;;5014722;28;20116;-66
2022/06/11 00:56:21;;;;;;;2.75;2.50;;;14.60;71.30;;;;;;5012968;28;20119;-66
2022/06/11 00:58:49;;;;;;;3.95;2.58;;;14.60;71.40;;;;;;5012906;28;20040;-66
2022/06/11 01:01:17;;;;;;;6.55;2.60;;;14.60;71.20;;;;;;5019360;28;20054;-66
2022/06/11 01:03:45;;;;;;;2.95;2.53;;;14.60;71.30;;;;;;5015058;28;20124;-67
2022/06/11 01:06:27;;;;;;;2.78;2.53;;;14.60;71.40;;;;;;5013601;28;20034;-67
2022/06/11 01:08:59;;;;;;;4.53;2.58;;;14.60;71.80;;;;;;5014229;28;20037;-67
2022/06/11 01:12:05;;;;;;;3.03;2.83;;;14.50;71.70;;;;;;5012127;28;20049;-65
2022/06/11 01:14:37;;;;;;;;;;;14.50;72.10;;;;;;5014678;28;20045;-67
2022/06/11 01:17:22;;;;;;;2.45;2.25;;;14.60;71.60;;;;;;5013550;28;20004;-66
2022/06/11 01:19:59;;;;;;;3.72;2.53;;;14.50;71.00;;;;;;5013946;28;20068;-66
2022/06/11 01:22:37;;;;;;;3.28;2.50;;;14.50;70.90;;;;;;5011915;28;20037;-66
2022/06/11 01:25:24;;;;;;;3.83;2.90;;;14.50;71.00;;;;;;5012675;28;20124;-67
2022/06/11 01:28:05;;;;;;;4.05;2.90;;;14.50;71.10;;;;;;5012633;28;20134;-66
2022/06/11 01:30:54;;;;;;;2.97;2.60;;;14.50;71.30;;;;;;5015467;28;20033;-66
2022/06/11 01:33:47;;;;;;;3.28;2.47;;;14.40;71.80;;;;;;5012479;28;20072;-66
2022/06/11 01:36:28;;;;;;;3.50;2.60;;;14.40;72.00;;;;;;5013352;28;20643;-67
2022/06/11 01:38:59;;;;;;;3.30;2.78;;;14.30;71.70;;;;;;5013324;28;20638;-65
2022/06/11 01:41:41;;;;;;;4.70;2.72;;;14.30;71.40;;;;;;5014722;28;20037;-66
2022/06/11 01:44:20;;;;;;;5.07;2.78;;;14.30;72.00;;;;;;5015978;28;20060;-66
2022/06/11 01:46:51;;;;;;;3.58;2.90;;;14.30;71.40;;;;;;5011485;28;20033;-66
2022/06/11 01:49:23;;;;;;;3.25;2.60;;;14.20;71.60;;;;;;5013612;28;20117;-66
2022/06/11 01:52:17;;;;;;;2.70;2.50;;;14.20;72.10;;;;;;5011774;28;20103;-66
2022/06/11 01:55:07;;;;;;;2.92;2.63;;;14.20;72.40;;;;;;5011548;28;20096;-66
2022/06/11 01:58:04;;;;;;;3.47;2.80;;;14.20;71.80;;;;;;5013669;28;20033;-66
2022/06/11 02:00:36;;;;;;;3.38;2.50;;;14.20;72.40;;;;;;5012467;28;20029;-66
2022/06/11 02:03:03;;;;;;;3.15;2.88;;;14.20;71.60;;;;;;5013180;28;20674;-66
2022/06/11 02:05:37;;;;;;;3.03;2.72;;;14.20;71.40;;;;;;5011288;28;20033;-66
2022/06/11 02:08:14;;;;;;;4.97;2.60;;;14.20;72.00;;;;;;5014481;28;20136;-66
2022/06/11 02:10:56;;;;;;;3.17;2.33;;;14.30;71.90;;;;;;5013012;28;20087;-66
2022/06/11 02:13:32;;;;;;;2.55;2.33;;;14.30;72.00;;;;;;5011872;28;20026;-66
2022/06/11 02:16:04;;;;;;;2.60;2.40;;;14.30;71.60;;;;;;5012588;28;20512;-66
2022/06/11 02:18:31;;;;;;;3.17;2.53;;;14.30;71.40;;;;;;5012665;28;20034;-66
2022/06/11 02:21:02;;;;;;;3.22;2.75;;;14.20;70.90;;;;;;5011886;28;20030;-66
2022/06/11 02:23:35;;;;;;;3.35;2.40;;;14.20;71.20;;;;;;5012148;28;20497;-66
2022/06/11 02:26:29;;;;;;;2.90;2.63;;;14.20;71.60;;;;;;5015197;28;20392;-66
2022/06/11 02:28:58;;;;;;;2.85;2.65;;;14.10;71.40;;;;;;5013250;28;20049;-66
2022/06/11 02:31:28;;;;;;;3.00;2.70;;;14.00;71.30;;;;;;5009949;28;20061;-66
2022/06/11 02:33:54;;;;;;;3.65;2.38;;;14.00;71.80;;;;;;5012807;28;20111;-67
2022/06/11 02:36:27;;;;;;;2.60;2.40;;;13.90;71.80;;;;;;5012098;28;20408;-66
2022/06/11 02:38:54;;;;;;;3.63;2.65;;;13.80;72.30;;;;;;5011798;28;20034;-66
2022/06/11 02:41:25;;;;;;;3.08;2.72;;;13.80;72.20;;;;;;5013596;28;20518;-66
2022/06/11 02:43:51;;;;;;;4.63;2.70;;;13.70;72.50;;;;;;5012636;28;20411;-67
2022/06/11 02:49:02;;;;;;;;;;;13.70;72.60;;;;;;5011247;28;20133;-66
2022/06/11 02:51:29;;;;;;;2.70;2.50;;;13.70;73.20;;;;;;5016959;28;20364;-66
2022/06/11 02:53:55;;;;;;;5.05;2.70;;;13.60;72.10;;;;;;5011032;28;20037;-66
2022/06/11 02:56:21;;;;;;;3.50;3.10;;;13.60;72.40;;;;;;5014442;28;20492;-66
2022/06/11 02:58:47;;;;;;;3.00;2.80;;;13.50;72.60;;;;;;5012314;28;20037;-66
2022/06/11 03:01:13;;;;;;;4.22;2.83;;;13.50;72.80;;;;;;5016141;28;20041;-66
2022/06/11 03:03:39;;;;;;;3.60;2.60;;;13.50;72.80;;;;;;5013560;28;20038;-66
2022/06/11 03:06:05;;;;;;;4.82;2.55;;;13.50;73.00;;;;;;5016125;28;20563;-66
2022/06/11 03:08:32;;;;;;;2.85;2.50;;;13.50;73.00;;;;;;5014741;28;20416;-66
2022/06/11 03:10:58;;;;;;;2.75;2.45;;;13.50;73.10;;;;;;5016351;28;20150;-66
2022/06/11 03:13:26;;;;;;;3.25;2.63;;;13.40;73.10;;;;;;5014310;28;20536;-66
2022/06/11 03:15:52;;;;;;;2.80;2.60;;;13.40;73.20;;;;;;5014110;28;20098;-66
2022/06/11 03:18:18;;;;;;;2.80;2.60;;;13.50;73.20;;;;;;5019093;28;20034;-66
2022/06/11 03:20:44;;;;;;;2.75;2.55;;;13.50;73.20;;;;;;5015037;28;20042;-65
2022/06/11 03:23:11;;;;;;;2.83;2.50;;;13.50;73.00;;;;;;5009516;28;20040;-66
2022/06/11 03:25:38;;;;;;;3.88;3.05;;;13.50;73.00;;;;;;5014499;28;20239;-66
2022/06/11 03:28:13;;;;;;;3.28;2.97;;;13.50;73.10;;;;;;5017360;28;20491;-66
2022/06/11 03:30:38;;;;;;;4.03;2.80;;;13.50;73.30;;;;;;5017041;28;20065;-66
2022/06/11 03:33:05;;;;;;;5.32;3.00;;;13.50;72.90;;;;;;5017113;28;20037;-66
2022/06/11 03:35:31;;;;;;;4.00;3.28;;;13.60;73.20;;;;;;5015152;28;20092;-66
2022/06/11 03:37:57;;;;;;;4.00;3.53;;;13.60;73.30;;;;;;5014441;28;20044;-66
2022/06/11 03:40:23;;;;;;;3.83;3.47;;;13.60;73.40;;;;;;5014698;28;20034;-66
2022/06/11 03:42:49;;;;;;;4.00;3.58;;;13.60;73.40;;;;;;5014454;28;20044;-66
2022/06/11 03:45:17;;;;;;;5.13;4.10;;;13.60;73.50;;;;;;5014370;28;20026;-66
2022/06/11 03:47:43;;;;;;;4.82;3.50;;;13.70;73.70;;;;;;5014849;28;20342;-65
2022/06/11 03:50:26;;;;;;;3.88;3.42;;;13.70;73.60;;;;;;5014958;28;20056;-66
2022/06/11 03:52:52;;;;;;;5.28;3.78;;;13.70;73.80;;;;;;5016500;28;20029;-66
2022/06/11 03:55:18;;;;;;;5.88;3.60;;;13.60;73.70;;;;;;5016997;28;20026;-66
2022/06/11 03:57:44;;;;;;;4.53;3.78;;;13.60;73.80;;;;;;5015523;28;20056;-66
2022/06/11 04:00:13;;;;;;;5.32;4.13;;;13.60;73.80;;;;;;5013756;28;20034;-66
2022/06/11 04:02:39;;;;;;;5.32;3.38;;;13.60;74.00;;;;;;5014372;28;20042;-66
2022/06/11 04:05:06;;;;;;;3.75;3.17;;;13.60;74.00;;;;;;5015878;28;20103;-66
2022/06/11 04:07:33;;;;;;;3.22;2.90;;;13.60;74.00;;;;;;5013581;28;20465;-65
2022/06/11 04:09:59;;;;;;;3.25;3.00;;;13.60;73.90;;;;;;5012843;28;20037;-66
2022/06/11 04:12:25;;;;;;;4.07;2.78;;;13.60;74.70;;;;;;5013734;28;20128;-66
2022/06/11 04:14:51;;;;;;;3.55;2.92;;;13.60;73.80;;;;;;5014748;28;20591;-66
2022/06/11 04:17:26;;;;;;;3.13;2.70;;;13.60;73.60;;;;;;5017058;28;20037;-66
2022/06/11 04:19:52;;;;;;;4.15;2.97;;;13.60;74.70;;;;;;5014947;28;20043;-66
2022/06/11 04:22:19;;;;;;;3.00;2.80;;;13.60;73.70;;;;;;5015997;28;20040;-66
2022/06/11 04:24:46;;;;;;;4.00;2.60;;;13.60;73.90;;;;;;5011603;28;20123;-65
2022/06/11 04:27:14;;;;;;;3.10;2.80;;;13.60;73.90;;;;;;5014807;28;20039;-66
2022/06/11 04:29:44;;;;;;;4.78;2.75;;;13.70;74.10;;;;;;5016323;28;20445;-66
2022/06/11 04:32:15;;;;;;;3.03;2.58;;;13.70;74.20;;;;;;5015394;28;20271;-66
2022/06/11 04:34:43;;;;;;;4.68;3.50;;;13.80;74.00;;;;;;5013161;28;20041;-66
2022/06/11 04:37:13;;;;;;;5.55;4.05;;;13.80;73.90;;;;;;5015566;28;20087;-66
2022/06/11 04:39:41;;;;;;;4.32;3.90;;;13.80;74.00;;;;;;5014611;28;20033;-66
2022/06/11 04:42:09;;;;;;;4.90;3.83;;;13.90;74.20;;;;;;5015590;28;20053;-66
2022/06/11 04:44:36;;;;;;;6.88;3.50;;;13.90;74.20;;;;;;5016881;28;20376;-66
2022/06/11 04:47:01;;;;;;;5.95;3.70;;;13.90;74.20;;;;;;5013854;28;20030;-66
2022/06/11 04:49:27;;;;;;;3.92;3.50;;;14.00;74.20;;;;;;5014921;28;20033;-66
2022/06/11 04:51:53;;;;;;;5.20;3.53;;;14.00;74.20;;;;;;5014970;28;20116;-66
2022/06/11 04:54:19;;;;;;;4.78;3.50;;;14.10;74.20;;;;;;5019098;28;20120;-66
2022/06/11 04:56:45;;;;;;;3.97;3.60;;;14.10;74.40;;;;;;5010888;28;20594;-65
2022/06/11 04:59:11;;;;;;;4.38;3.47;;;14.10;74.60;;;;;;5015636;28;20026;-65
2022/06/11 05:01:37;;;;;;;6.10;3.65;;;14.20;74.60;;;;;;5015038;28;20408;-66
2022/06/11 05:04:03;;;;;;;3.90;3.50;;;14.30;74.70;;;;;;5013233;28;20029;-66
2022/06/11 05:06:32;;;;;;;4.63;3.33;;;14.30;74.90;;;;;;5014840;28;20037;-66
2022/06/11 05:08:58;;;;;;;4.00;3.50;;;14.30;75.10;;;;;;5012125;28;20036;-66
2022/06/11 05:11:24;;;;;;;6.30;3.13;;;14.40;75.20;;;;;;5011815;28;20049;-65
2022/06/11 05:13:50;;;;;;;6.63;3.38;;;14.40;75.30;;;;;;5014215;28;20044;-66
2022/06/11 05:16:18;;;;;;;5.60;4.57;;;14.50;75.30;;;;;;5016930;28;20037;-66
2022/06/11 05:18:44;;;;;;;4.43;4.00;;;14.50;75.80;;;;;;5013092;28;20136;-66
2022/06/11 05:21:10;;;;;;;4.05;3.75;;;14.50;76.00;;;;;;5014474;28;20057;-66
2022/06/11 05:23:36;;;;;;;5.40;3.60;;;14.60;76.00;;;;;;5013142;28;20079;-66
2022/06/11 05:26:01;;;;;;;4.07;3.47;;;14.70;76.10;;;;;;5013502;28;20068;-66
2022/06/11 05:28:30;;;;;;;4.13;3.65;;;14.70;76.10;;;;;;5031075;28;20033;-66
2022/06/11 05:30:56;;;;;;;5.85;3.70;;;14.80;76.30;;;;;;5012400;28;20046;-66
2022/06/11 05:33:23;;;;;;;4.57;4.13;;;14.90;76.10;;;;;;5014080;28;20107;-67
2022/06/11 05:35:50;;;;;;;5.15;3.45;;;15.00;75.80;;;;;;5008808;28;20497;-66
2022/06/11 05:38:23;;;;;;;3.65;3.35;;;15.10;75.80;;;;;;5013997;28;20284;-66
2022/06/11 05:40:50;;;;;;;4.35;3.53;;;15.20;76.10;;;;;;5008884;28;20057;-65
2022/06/11 05:43:16;;;;;;;4.00;3.63;;;15.30;75.90;;;;;;5014456;28;20111;-66
2022/06/11 05:46:08;;;;;;;3.97;3.65;;;15.40;75.80;;;;;;5016096;28;20396;-64
2022/06/11 05:48:46;;;;;;;4.05;3.65;;;15.50;76.30;;;;;;5012909;28;20068;-66
2022/06/11 05:51:20;;;;;;;5.32;3.53;;;15.60;75.30;;;;;;5012883;28;20037;-66
2022/06/11 05:53:48;;;;;;;4.47;3.63;;;15.70;75.10;;;;;;5013151;28;20049;-66
2022/06/11 05:56:15;;;;;;;4.32;3.70;;;15.80;75.10;;;;;;5013691;28;20038;-66
2022/06/11 05:58:45;;;;;;;5.20;3.60;;;15.90;75.30;;;;;;5011784;28;20034;-66
2022/06/11 06:01:15;;;;;;;5.20;3.42;;;16.00;75.40;;;;;;5016081;28;20352;-66
2022/06/11 06:03:41;;;;;;;4.00;3.45;;;16.10;75.30;;;;;;5014115;28;20030;-66
2022/06/11 06:06:06;;;;;;;3.55;3.25;;;16.20;75.10;;;;;;5014650;28;20504;-67
2022/06/11 06:08:32;;;;;;;4.18;3.17;;;16.30;75.00;;;;;;5011939;28;20034;-66
2022/06/11 06:10:58;;;;;;;8.18;3.67;;;16.40;74.80;;;;;;5012599;28;20049;-66
2022/06/11 06:16:07;;;;;;;4.15;3.75;;;16.60;74.50;;;;;;5013096;28;20056;-67
2022/06/11 06:18:34;;;;;;;6.13;3.65;;;16.70;74.20;;;;;;5014238;28;20038;-66
2022/06/11 06:20:59;;;;;;;4.50;3.88;;;16.80;74.10;;;;;;5012362;28;20030;-67
2022/06/11 06:23:25;;;;;;;5.70;4.10;;;16.90;73.90;;;;;;5013010;28;20627;-66
2022/06/11 06:25:51;;;;;;;5.35;4.13;;;17.00;73.70;;;;;;5012667;28;20639;-66
2022/06/11 06:28:16;;;;;;;5.97;4.20;;;17.10;73.70;;;;;;5013708;28;20041;-66
2022/06/11 06:30:42;;;;;;;5.38;4.32;;;17.20;73.90;;;;;;5012139;28;20037;-65
2022/06/11 06:33:08;;;;;;;5.35;3.88;;;17.30;73.30;;;;;;5013884;28;20034;-66
2022/06/11 06:35:33;;;;;;;5.15;3.97;;;17.40;73.20;;;;;;5022471;28;20042;-66
2022/06/11 06:37:59;;;;;;;4.72;4.32;;;17.50;73.00;;;;;;5003321;28;20329;-67
2022/06/11 06:40:25;;;;;;;5.90;4.28;;;17.60;72.30;;;;;;5002496;28;20038;-66
2022/06/11 06:42:51;;;;;;;5.10;4.30;;;17.70;71.70;;;;;;5004711;28;20485;-67
2022/06/11 06:45:16;;;;;;;4.72;4.20;;;17.70;71.20;;;;;;5010775;28;20034;-66
2022/06/11 06:47:43;;;;;;;5.47;4.28;;;17.80;71.00;;;;;;5008073;28;20132;-67
2022/06/11 06:50:09;;;;;;;4.70;4.13;;;17.90;70.50;;;;;;5008998;28;20099;-66
2022/06/11 06:52:35;;;;;;;4.40;3.80;;;18.00;70.40;;;;;;5006701;28;20029;-67
2022/06/11 06:55:00;;;;;;;5.38;4.10;;;18.10;70.70;;;;;;5006968;28;20075;-65
2022/06/11 06:57:26;;;;;;;4.88;4.15;;;18.20;70.50;;;;;;5006608;28;21307;-66
2022/06/11 06:59:52;;;;;;;4.78;3.95;;;18.30;70.00;;;;;;5006912;28;20044;-65
2022/06/11 07:02:18;;;;;;;4.30;3.90;;;18.40;69.50;;;;;;5006140;28;20044;-66
2022/06/11 07:04:43;;;;;;;4.55;3.95;;;18.50;69.60;;;;;;5013635;28;20076;-66
2022/06/11 07:07:17;;;;;;;5.05;3.70;;;18.50;69.30;;;;;;5010519;28;20049;-66
2022/06/11 07:09:43;;;;;;;3.70;3.40;;;18.70;69.10;;;;;;5010707;28;20037;-66
2022/06/11 07:12:09;;;;;;;4.07;3.38;;;18.70;69.00;;;;;;5006705;28;20037;-67
2022/06/11 07:14:34;;;;;;;5.22;3.60;;;18.80;68.90;;;;;;5007985;28;20030;-67
2022/06/11 07:17:05;;;;;;;6.40;3.88;;;18.90;68.50;;;;;;5006794;28;20615;-67
2022/06/11 07:19:35;;;;;;;4.63;3.80;;;19.00;68.00;;;;;;5012257;28;20046;-66
2022/06/11 07:22:11;;;;;;;7.80;3.72;;;19.10;67.80;;;;;;5008998;28;20061;-65
2022/06/11 07:24:40;;;;;;;5.20;3.78;;;19.20;67.00;;;;;;5011227;28;20562;-66
2022/06/11 07:27:14;;;;;;;4.97;4.05;;;19.30;67.30;;;;;;5008644;28;20088;-67
2022/06/11 07:30:03;;;;;;;4.18;3.70;;;19.40;67.50;;;;;;5007223;28;20037;-67
2022/06/11 07:32:35;;;;;;;5.25;3.50;;;19.50;66.70;;;;;;5011642;28;20026;-66
2022/06/11 07:35:04;;;;;;;5.70;4.18;;;19.60;66.90;;;;;;5010464;28;20028;-66
2022/06/11 07:37:29;;;;;;;5.30;4.28;;;19.70;67.00;;;;;;5010105;28;20053;-66
2022/06/11 07:39:55;;;;;;;6.40;4.32;;;19.80;66.90;;;;;;5012011;28;20061;-66
2022/06/11 07:42:20;;;;;;;4.15;3.75;;;19.90;66.70;;;;;;5009340;28;21550;-66
2022/06/11 07:44:46;;;;;;;5.60;4.05;;;20.00;66.30;;;;;;5010176;28;20045;-66
2022/06/11 07:47:12;;;;;;;4.60;3.72;;;20.10;66.00;;;;;;5013659;28;20096;-66
2022/06/11 07:49:37;;;;;;;4.30;3.90;;;20.10;65.50;;;;;;5012628;28;20064;-67
2022/06/11 07:52:04;;;;;;;7.47;3.65;;;20.20;65.30;;;;;;5012943;28;20045;-65
2022/06/11 07:54:31;;;;;;;5.15;3.60;;;20.30;65.40;;;;;;5011657;28;20108;-66
2022/06/11 07:56:57;;;;;;;4.38;3.80;;;20.40;65.90;;;;;;5012356;28;20061;-66
2022/06/11 07:59:22;;;;;;;4.10;3.70;;;20.50;65.50;;;;;;5010487;28;20121;-66
2022/06/11 08:01:48;;;;;;;3.65;3.35;;;20.60;65.40;;;;;;5009376;28;20486;-66
2022/06/11 08:04:14;;;;;;;4.30;3.75;;;20.70;64.50;;;;;;5011095;28;20030;-67
2022/06/11 08:06:39;;;;;;;4.32;3.65;;;20.80;64.30;;;;;;5013441;28;21445;-66
2022/06/11 08:09:05;;;;;;;4.57;3.42;;;20.90;63.80;;;;;;5008002;28;20041;-67
2022/06/11 08:11:30;;;;;;;4.53;3.15;;;21.00;64.00;;;;;;5010258;28;20094;-66
2022/06/11 08:13:56;;;;;;;4.05;3.70;;;21.10;63.80;;;;;;5015316;28;20064;-66
2022/06/11 08:16:22;;;;;;;3.53;3.08;;;21.20;63.10;;;;;;5007495;28;20133;-66
2022/06/11 08:18:47;;;;;;;3.30;3.10;;;21.30;63.20;;;;;;5014853;28;20033;-66
2022/06/11 08:21:14;;;;;;;4.95;3.42;;;21.40;62.50;;;;;;5017052;28;20060;-66
2022/06/11 08:23:41;;;;;;;3.20;2.90;;;21.60;62.20;;;;;;5013287;28;20036;-67
2022/06/11 08:26:07;;;;;;;4.38;3.22;;;21.70;62.20;;;;;;5013730;28;20508;-67
2022/06/11 08:28:33;;;;;;;4.50;3.15;;;21.80;61.40;;;;;;5008145;28;20061;-67
2022/06/11 08:31:03;;;;;;;3.47;2.60;;;22.00;61.20;;;;;;5012755;28;20065;-67
2022/06/11 08:33:28;;;;;;;2.60;2.40;;;22.10;61.00;;;;;;5007924;28;20397;-67
2022/06/11 08:35:54;;;;;;;4.00;2.60;;;22.20;61.10;;;;;;5012992;28;20100;-65
2022/06/11 08:38:19;;;;;;;2.65;2.47;;;22.40;61.00;;;;;;5013527;28;20061;-67
2022/06/11 08:40:50;;;;;;;3.70;2.42;;;22.50;59.90;;;;;;5016255;28;20061;-67
2022/06/11 08:43:16;;;;;;;3.20;2.20;;;22.70;59.10;;;;;;5013863;28;20038;-66
2022/06/11 08:45:57;;;;;;;2.50;2.30;;;22.80;59.30;;;;;;5013803;28;20110;-67
2022/06/11 08:48:41;;;;;;;2.72;2.28;;;22.90;58.70;;;;;;5012725;28;20034;-66
2022/06/11 08:51:16;;;;;;;2.97;2.00;;;23.00;57.00;;;;;;5012200;28;20034;-67
2022/06/11 08:53:42;;;;;;;1.88;1.77;;;23.10;57.90;;;;;;5012506;28;20030;-67
2022/06/11 08:56:17;;;;;;;2.83;1.77;;;23.20;58.00;;;;;;5010165;28;20034;-67
2022/06/11 08:59:01;;;;;;;2.28;1.83;;;23.30;56.90;;;;;;5006873;28;20041;-67
2022/06/11 09:01:49;;;;;;;1.83;1.70;;;23.40;57.20;;;;;;5011429;28;20548;-66
2022/06/11 09:04:33;;;;;;;2.60;1.73;;;23.60;55.70;;;;;;5010619;28;20084;-67
2022/06/11 09:07:30;;;;;;;1.45;1.35;;;23.70;56.00;;;;;;5005478;28;20406;-67
2022/06/11 09:10:38;;;;;;;4.35;1.77;;;23.80;56.10;;;;;;5010080;28;20080;-66
2022/06/11 09:13:41;;;;;;;3.05;1.50;;;24.00;55.80;;;;;;5011830;28;20157;-67
2022/06/11 09:16:28;;;;;;;1.70;1.60;;;24.10;55.90;;;;;;5020657;28;20049;-67
2022/06/11 09:19:47;;;;;;;1.45;1.35;;;24.20;55.40;;;;;;5010630;28;20136;-67
2022/06/11 09:22:24;;;;;;;1.98;1.40;;;24.40;53.90;;;;;;5021001;28;20037;-67
2022/06/11 09:25:09;;;;;;;2.35;1.40;;;24.40;52.50;;;;;;5017277;28;20053;-67
2022/06/11 09:27:39;;;;;;;1.33;1.23;;;24.60;51.90;;;;;;5017232;28;20033;-67
2022/06/11 09:30:16;;;;;;;3.38;1.02;;;24.70;52.10;;;;;;5017133;28;20574;-67
2022/06/11 09:32:48;;;;;;;1.20;1.10;;;24.70;52.80;;;;;;5016850;28;20215;-67
2022/06/11 09:35:19;;;;;;;1.85;1.20;;;24.80;52.00;;;;;;5016465;28;20030;-67
2022/06/11 09:37:50;;;;;;;1.27;1.00;;;24.90;50.60;;;;;;5017999;28;20028;-67
2022/06/11 09:40:52;;;;;;;1.10;0.90;;;25.00;49.80;;;;;;5015230;28;20034;-67
2022/06/11 09:43:27;;;;;;;2.50;0.80;;;25.00;49.60;;;;;;5017635;28;20038;-67
2022/06/11 09:46:18;;;;;;;1.70;0.63;;;25.10;49.00;;;;;;5016535;28;20413;-67
2022/06/11 09:48:55;;;;;;;1.08;1.00;;;25.20;47.90;;;;;;5016421;28;20141;-67
2022/06/11 09:51:58;;;;;;;0.93;0.82;;;25.30;48.80;;;;;;5017365;28;20504;-67
2022/06/11 09:54:31;;;;;;;0.65;0.65;;;25.40;46.50;;;;;;5015500;28;20041;-68
2022/06/11 09:57:05;;;;;;;2.45;0.90;;;25.50;47.10;;;;;;5014971;28;20076;-67
2022/06/11 09:59:39;;;;;;;0.60;0.60;;;25.50;46.10;;;;;;5011661;28;20998;-67
2022/06/11 10:02:09;;;;;;;2.17;0.80;;;25.60;46.50;;;;;;5017019;28;20103;-67
2022/06/11 10:04:41;;;;;;;0.82;0.75;;;25.60;46.00;;;;;;5015545;28;20103;-67
2022/06/11 10:07:15;;;;;;;0.82;0.80;;;25.60;46.40;;;;;;5014615;28;20456;-67
2022/06/11 10:09:47;;;;;;;;;;;25.70;45.90;;;;;;5017069;28;20086;-67
2022/06/11 10:12:34;;;;;;;0.65;0.60;;;25.80;47.50;;;;;;5012996;28;19925;-67
2022/06/11 10:15:02;;;;;;;0.90;0.73;;;25.90;45.40;;;;;;5015374;28;20033;-69
2022/06/11 10:17:34;;;;;;;1.20;0.88;;;26.00;45.80;;;;;;5013122;28;20037;-67
2022/06/11 10:20:21;;;;;;;1.98;0.68;;;26.10;45.20;;;;;;5016590;28;20091;-67
2022/06/11 10:22:52;;;;;;;1.45;0.63;;;26.10;44.40;;;;;;5016619;28;20034;-67
2022/06/11 10:25:36;;;;;;;0.73;0.70;;;26.20;43.80;;;;;;5017469;28;20138;-67
2022/06/11 10:28:13;;;;;;;1.95;0.65;;;26.20;45.00;;;;;;5017247;28;20524;-67
2022/06/11 10:31:06;;;;;;;0.85;0.85;;;26.30;44.00;;;;;;5015429;28;20291;-67
2022/06/11 10:33:36;;;;;;;1.20;1.00;;;26.40;43.30;;;;;;5017278;28;20109;-67
2022/06/11 10:36:08;;;;;;;1.17;1.08;;;26.40;45.10;;;;;;5014607;28;20038;-67
2022/06/11 10:38:50;;;;;;;0.90;0.90;;;26.50;44.50;;;;;;5015233;28;20118;-67
2022/06/11 10:41:45;;;;;;;1.77;0.70;;;26.60;44.40;;;;;;5013500;28;20065;-67
2022/06/11 10:44:16;;;;;;;;;;;26.70;44.00;;;;;;5020451;28;20026;-67
2022/06/11 10:46:42;;;;;;;1.05;0.60;;;26.70;46.20;;;;;;5015489;28;19917;-66
2022/06/11 10:49:15;;;;;;;1.92;0.75;;;26.80;44.10;;;;;;5016934;28;20034;-67
2022/06/11 10:51:46;;;;;;;0.93;0.70;;;26.80;43.40;;;;;;5014479;28;20124;-67
2022/06/11 10:54:23;;;;;;;1.30;1.00;;;26.90;44.00;;;;;;5016068;28;20589;-67
2022/06/11 10:57:06;;;;;;;1.13;0.68;;;26.90;43.90;;;;;;5013516;28;20500;-67
2022/06/11 10:59:44;;;;;;;2.05;0.70;;;26.90;43.10;;;;;;5016190;28;20037;-67
2022/06/11 11:02:25;;;;;;;1.52;0.80;;;27.00;42.10;;;;;;5014870;28;20077;-68
2022/06/11 11:04:56;;;;;;;1.48;0.70;;;27.00;39.60;;;;;;5016661;28;20124;-67
2022/06/11 11:07:24;;;;;;;0.93;0.80;;;26.90;40.80;;;;;;5014520;28;20042;-67
2022/06/11 11:09:50;;;;;;;1.27;0.65;;;26.90;41.60;;;;;;5014192;28;20697;-68
2022/06/11 11:12:21;;;;;;;1.20;0.82;;;26.80;42.60;;;;;;5008869;28;20033;-68
2022/06/11 11:14:57;;;;;;;0.70;0.70;;;26.80;42.20;;;;;;5015168;28;20116;-68
2022/06/11 11:17:25;;;;;;;1.00;0.50;;;26.80;41.60;;;;;;5016464;28;20037;-67
2022/06/11 11:20:30;;;;;;;0.90;0.65;;;26.80;41.80;;;;;;5016945;28;20053;-67
2022/06/11 11:23:14;;;;;;;1.27;0.73;;;26.80;41.10;;;;;;5012794;28;20434;-67
2022/06/11 11:25:42;;;;;;;0.70;0.70;;;26.90;42.00;;;;;;5018444;28;20383;-67
2022/06/11 11:28:20;;;;;;;0.80;0.80;;;26.90;42.40;;;;;;5017314;28;20091;-67
2022/06/11 11:30:46;;;;;;;1.00;0.90;;;26.90;41.80;;;;;;5017056;28;20053;-68
2022/06/11 11:33:23;;;;;;;0.88;0.75;;;27.00;42.50;;;;;;5017733;28;20141;-67
2022/06/11 11:35:58;;;;;;;2.58;0.80;;;27.00;41.70;;;;;;5019120;28;20034;-67
2022/06/11 11:38:23;;;;;;;1.40;1.00;;;27.10;41.50;;;;;;5017377;28;20437;-70
2022/06/11 11:40:56;;;;;;;0.70;0.70;;;27.10;41.20;;;;;;5018816;28;20030;-68
2022/06/11 11:43:24;;;;;;;1.27;0.93;;;27.10;40.60;;;;;;5020115;28;20095;-67
2022/06/11 11:45:57;;;;;;;0.80;0.80;;;27.10;41.30;;;;;;5018367;28;20125;-68
2022/06/11 11:48:31;;;;;;;0.73;0.45;;;27.10;41.00;;;;;;5020243;28;20098;-68
2022/06/11 11:51:26;;;;;;;0.65;0.47;;;27.10;40.60;;;;;;5016615;28;20260;-68
2022/06/11 11:54:00;;;;;;;1.17;0.70;;;27.00;39.60;;;;;;5018797;28;20080;-68
2022/06/11 11:56:34;;;;;;;0.95;0.80;;;27.00;40.00;;;;;;5018215;28;20037;-67
2022/06/11 11:59:30;;;;;;;0.77;0.60;;;27.00;40.80;;;;;;5019719;28;20108;-67
2022/06/11 12:02:17;;;;;;;0.80;0.75;;;26.90;38.50;;;;;;5017641;28;20057;-68
2022/06/11 12:05:15;;;;;;;0.98;0.88;;;26.90;40.40;;;;;;5017731;28;21044;-67
2022/06/11 12:07:44;;;;;;;1.23;0.93;;;26.80;38.80;;;;;;5017588;28;20516;-67
2022/06/11 12:10:44;;;;;;;0.80;0.60;;;26.80;40.10;;;;;;5018709;28;21406;-68
2022/06/11 12:13:39;;;;;;;2.08;1.10;;;26.70;39.00;;;;;;5018403;28;20029;-67
2022/06/11 12:16:06;;;;;;;1.60;0.80;;;26.70;38.80;;;;;;5018668;28;20042;-67
2022/06/11 12:18:42;;;;;;;3.67;0.70;;;26.70;40.50;;;;;;5018916;28;20034;-67
2022/06/11 12:21:16;;;;;;;1.45;0.60;;;26.60;40.70;;;;;;5015941;28;20033;-66
2022/06/11 12:23:46;;;;;;;0.60;0.60;;;26.60;41.20;;;;;;5018603;28;20438;-68
2022/06/11 12:26:34;;;;;;;0.60;0.60;;;26.60;41.80;;;;;;5020626;28;20513;-67
2022/06/11 12:29:11;;;;;;;0.60;0.60;;;26.70;41.00;;;;;;5013860;28;20077;-67
2022/06/11 12:31:37;;;;;;;1.13;0.60;;;26.80;40.90;;;;;;5012168;28;20606;-67
2022/06/11 12:34:15;;;;;;;1.42;0.82;;;26.90;40.70;;;;;;5017365;28;20045;-67
2022/06/11 12:36:57;;;;;;;0.65;0.65;;;26.90;40.50;;;;;;5011814;28;20034;-67
2022/06/11 12:39:43;;;;;;;0.70;0.70;;;27.00;40.70;;;;;;5016147;28;20040;-68
2022/06/11 12:42:30;;;;;;;2.50;0.70;;;27.10;40.40;;;;;;5016115;28;20042;-67
2022/06/11 12:45:18;;;;;;;0.90;0.80;;;27.20;40.50;;;;;;5016360;28;20118;-68
2022/06/11 12:48:00;;;;;;;1.13;0.85;;;27.30;39.90;;;;;;5016728;28;20029;-67
2022/06/11 12:50:31;;;;;;;1.45;0.90;;;27.30;40.20;;;;;;5014540;28;20033;-67
2022/06/11 12:53:20;;;;;;;0.98;0.80;;;27.40;39.50;;;;;;5015040;28;20087;-68
2022/06/11 12:55:58;;;;;;;1.77;0.70;;;27.40;39.70;;;;;;5014409;28;20129;-68
2022/06/11 12:58:39;;;;;;;0.90;0.80;;;27.40;38.70;;;;;;5018455;28;20034;-67
2022/06/11 13:01:14;;;;;;;0.98;0.70;;;27.40;39.40;;;;;;5014526;28;20054;-68
2022/06/11 13:04:17;;;;;;;1.00;0.90;;;27.50;40.20;;;;;;5013817;28;20033;-68
2022/06/11 13:06:57;;;;;;;1.25;0.93;;;27.50;37.30;;;;;;5013364;28;20045;-68
2022/06/11 13:09:39;;;;;;;1.02;0.93;;;27.50;39.10;;;;;;5016599;28;20059;-68
2022/06/11 13:12:31;;;;;;;0.88;0.88;;;27.50;39.20;;;;;;5009544;28;20103;-68
2022/06/11 13:15:20;;;;;;;0.98;0.88;;;27.50;40.00;;;;;;5014152;28;20503;-67
2022/06/11 13:18:23;;;;;;;0.90;0.90;;;27.50;38.20;;;;;;5013035;28;20531;-68
2022/06/11 13:21:10;;;;;;;1.50;0.90;;;27.40;38.50;;;;;;5015776;28;20034;-67
2022/06/11 13:23:41;;;;;;;3.75;1.10;;;27.40;39.20;;;;;;5013102;28;20532;-67